首页
METAR-TAF:

METAR-TAF

机场 :

Stewart International Airport

Newburgh, 紐約州, 美国

纬度: 41-30N, 经度: 074-06W, 海拔: 150米

当前天气观测

该预报发布于11分钟前的18:45 UTC
风速12节,风向,有时为18节阵风
温度 -2°C
湿度 33%
气压 1024 hPa
能見度: 16.1公里
天空无云

METAR: KSWF 201845Z 01012G18KT 10SM SKC M02/M16 A3025

时间: 13:56 (18:56 UTC)

预报

该预报发布于48分钟前的18:08 UTC
预报有效从20日的 18点(UTC)到 21日的 24点(UTC)
风速10节,风向西北,有时为17节阵风
能見度: 10公里
天空无云
从 20日的 2200点(UTC)
风速7节,风向北转西北
能見度: 10公里
天空无云
从 21日的 0100点(UTC)
风速6节,风向西北
能見度: 10公里
天空无云
从 21日的 0900点(UTC)
风速4节,风向北转西北
能見度: 10公里
天空无云
从 21日的 1500点(UTC)
风速7节,风向西北
能見度: 10公里
天空无云

TAF: KSWF 201808Z 2018/2124 32010G17KT P6SM SKC FM202200 33007KT P6SM SKC FM210100 32006KT P6SM SKC FM210900 33004KT P6SM SKC FM211500 31007KT P6SM SKC AMD NOT SKED

超过4000个机场的气象观测和天气预报(METAR&TAF报告)。

可查询的气象台以黄色和红色小点在地图上表示。

将鼠标移到小点上方,可查看气象台名称。

然后点击查看天气观测和预报。

如需切换地图:点击带黑十字的绿色按钮放大地图;点击带横线的绿色按钮缩小地图;或者点击绿色箭头查看邻近地区的地图。


METAR-TAF: